Flight Track Log - Related Links

Times and Time Zones

All times are in EDT time to prevent confusion due to time zone crossing. See the N447MB flight status page for this flight to view local times or setup timezone preferences in your user account.

Time Position Orientation Groundspeed Altitude Reporting Facility
EDT Latitude Longitude Course Direction KTS MPH feet Rate Location/Type
Mon 08:21:00 AM 41.3051 -70.3012 291° West  Level FlightAware Approximate
Mon 08:22:00 AM 41.3185 -70.3481 291° West  Level FlightAware Approximate
Mon 08:23:00 AM 41.3319 -70.3950 291° West  Level FlightAware Approximate
Mon 08:24:00 AM 41.3406 -70.4431 290° West  Level FlightAware Approximate
Mon 08:25:00 AM 41.3535 -70.4903 290° West  Level FlightAware Approximate
Mon 08:26:00 AM 41.3663 -70.5375 290° West  Level FlightAware Approximate
Mon 08:27:00 AM 41.3792 -70.5847 290° West  Level FlightAware Approximate
Mon 08:28:00 AM 41.3756 -70.6323 252° West  Level FlightAware Approximate
Mon 08:29:00 AM 41.3642 -70.6802 252° West  Level FlightAware Approximate
Mon 08:29:46 AM 41.2017 -70.8731 252° West 142 163 6,600  Level Boston Center
Mon 08:30:00 AM 41.3528 -70.7281 252° West  Level FlightAware Approximate
Mon 08:30:53 AM 41.2003 -70.9339 268° West 145 167 6,600  Level Boston Center
Mon 08:31:00 AM 41.3413 -70.7759 252° West  Level FlightAware Approximate
Mon 08:31:53 AM 41.1969 -70.9864 265° West 147 169 6,600  Level Boston Center
Mon 08:32:00 AM 41.3299 -70.8237 252° West  Level FlightAware Approximate
Mon 08:33:00 AM 41.3184 -70.8715 252° West  Level FlightAware Approximate
Mon 08:33:00 AM 41.1933 -71.0442 265° West 144 166 6,600  Level Boston Center
Mon 08:34:00 AM 41.3069 -70.9192 252° West  Level FlightAware Approximate
Mon 08:34:01 AM 41.1919 -71.0994 268° West 143 165 6,600  Level Boston Center
Mon 08:34:56 AM 41.1906 -71.1492 268° West 146 168 6,600  Level Boston Center
Mon 08:36:09 AM 41.1869 -71.2156 266° West 144 166 6,600  Level Boston Center
Mon 08:37:10 AM 41.1875 -71.2650 271° West 142 163 6,600  Level Boston Center
Mon 08:38:11 AM 41.1819 -71.3203 262° West 143 165 6,600  Level Boston Center
Mon 08:39:05 AM 41.1803 -71.3672 267° West 143 165 6,600  Level Boston Center
Mon 08:40:06 AM 41.1786 -71.4197 268° West 144 166 6,600  Level Boston Center
Mon 08:41:01 AM 41.1769 -71.4694 267° West 143 165 6,600  Level Boston Center
Mon 08:42:02 AM 41.1775 -71.5217 271° West 142 163 6,600  Level Boston Center
Mon 08:43:02 AM 41.1717 -71.5769 262° West 143 165 6,600  Level Boston Center
Mon 08:44:03 AM 41.1719 -71.6267 270° West 142 163 6,600  Level Boston Center
Mon 08:45:04 AM 41.1683 -71.6792 265° West 142 163 6,600  Level Boston Center
Mon 08:46:05 AM 41.1664 -71.7342 267° West 140 161 6,600  Level Boston Center
Mon 08:47:06 AM 41.1647 -71.7867 268° West 147 169 6,600  Level Boston Center
Mon 08:48:13 AM 41.1650 -71.8417 270° West 139 160 6,600  Level Boston Center
Mon 08:49:13 AM 41.1592 -71.8942 262° West 140 161 6,600  Level Boston Center
Mon 08:50:14 AM 41.1572 -71.9439 267° West 138 159 6,600  Level Boston Center
Mon 08:51:15 AM 41.1553 -71.9989 267° West 142 163 6,600  Level Boston Center
Mon 08:52:16 AM 41.1533 -72.0514 267° West 141 162 6,600  Level Boston Center
Mon 08:53:17 AM 41.1517 -72.1039 268° West 139 160 6,600  Level Boston Center
Mon 08:54:17 AM 41.1456 -72.1561 261° West 142 163 6,600  Level Boston Center
Mon 08:55:18 AM 41.1456 -72.2086 270° West 140 161 6,600  Level Boston Center
Mon 08:57:00 AM 41.1333 -72.3000 260° West 142 163 6,600  Level New York TRACON
Mon 08:58:00 AM 41.1333 -72.3500 270° West 141 162 6,600  Level New York TRACON
Mon 08:59:00 AM 41.1333 -72.4000 270° West 139 160 6,600  Level New York TRACON
Mon 08:59:54 AM 41.1333 -72.4500 270° West 138 159 6,600  Level New York TRACON
Mon 09:01:00 AM 41.1333 -72.5000 270° West 140 161 6,600  Level New York TRACON
Mon 09:02:00 AM 41.1333 -72.5500 270° West 139 160 6,600  Level New York TRACON
Mon 09:03:00 AM 41.1333 -72.6000 270° West 136 157 6,600  Level New York TRACON
Mon 09:04:00 AM 41.1167 -72.6500 246° West 136 157 6,600  Level New York TRACON
Mon 09:05:00 AM 41.1203 -72.6998 276° West  Level FlightAware Approximate
Mon 09:06:00 AM 41.1167 -72.7500 276° West 142 163 6,600  Level New York TRACON
Mon 09:07:00 AM 41.1213 -72.7997 277° West  Level FlightAware Approximate
Mon 09:08:00 AM 41.1167 -72.8500 277° West 143 165 6,600  Level New York TRACON
Mon 09:09:00 AM 41.1167 -72.9000 270° West 148 170 6,600  Level New York TRACON
Mon 09:10:00 AM 41.1167 -72.9667 270° West 148 170 6,600  Level New York TRACON
Mon 09:11:00 AM 41.1000 -73.0167 246° West 146 168 6,600  Level New York TRACON
Mon 09:12:00 AM 41.1000 -73.0667 270° West 147 169 6,600  Level New York TRACON
Mon 09:13:00 AM 41.1000 -73.1167 270° West 148 170 6,600  Level New York TRACON
Mon 09:14:00 AM 41.1000 -73.1667 270° West 146 168 6,600  Level New York TRACON
Mon 09:15:00 AM 41.1000 -73.2333 270° West 146 168 6,600 -100 Level New York TRACON
Mon 09:16:00 AM 41.0833 -73.2833 246° West 151 174 6,400 -400 Descending New York TRACON
Mon 09:17:00 AM 41.0833 -73.3500 270° West 165 190 5,800 -800 Descending New York TRACON
Mon 09:18:00 AM 41.0833 -73.4000 270° West 175 201 4,800 -950 Descending New York TRACON
Mon 09:19:00 AM 41.0833 -73.4667 270° West 180 207 3,900 -900 Descending New York TRACON
Mon 09:20:00 AM 41.1000 -73.5333 288° West 181 208 3,000 -737 Descending New York TRACON
Mon 09:20:54 AM 41.0667 -73.5667 217° Southwest 180 207 2,500 -474 Descending New York TRACON
Mon 09:21:54 AM 41.0333 -73.5500 159° South 171 197 2,100 -250 Descending New York TRACON
Mon 09:22:54 AM 41.0000 -73.5667 201° Southwest 154 177 2,000 -200 Descending New York TRACON
Mon 09:23:54 AM 41.0167 -73.6167 294° West 147 169 1,700 -250 Descending New York TRACON
Mon 09:24:54 AM 41.0333 -73.6667 294° West 142 163 1,500 -500 Descending New York TRACON
Mon 09:25:54 AM 41.0500 -73.7000 304° West 117 135 700 -800 Descending New York TRACON
Mon 09:27:00 AM 41.0669 -73.7076 341° North  Level Estimated
Mon 09:34:00 AM 41.0669 -73.7076 37° Northeast  Level Estimated
Mon 09:35:00 AM 41.0669 -73.7076 37° Northeast  Level Estimated

Login

Don't have an account? Register now (free) for customized features, flight alerts, and more!